Time;durP1;ratioP1;P1;durP2;ratioP2;P2;SDS_P1;SDS_P2;PMS_P1;PMS_P2;Temp;Humidity;BMP_temperature;BMP_pressure;BME280_temperature;BME280_humidity;BME280_pressure;Samples;Min_cycle;Max_cycle;Signal;HPM_P1;HPM_P2
2022/10/09 00:01:30;;;;;;;35.67;17.27;;;;;;;17.07;60.37;100480.69;31318390;28;20057;-74
2022/10/09 00:16:32;;;;;;;31.53;14.37;;;;;;;16.84;61.62;100451.09;31335085;28;20115;-74
2022/10/09 00:31:34;;;;;;;24.87;10.37;;;;;;;16.71;62.32;100437.50;31327709;28;20114;-75
2022/10/09 00:46:54;;;;;;;31.87;11.43;;;;;;;16.69;62.30;100454.41;31323652;28;20544;-74
2022/10/09 01:01:56;;;;;;;21.03;9.67;;;;;;;16.70;61.49;100455.16;31307855;28;20052;-74
2022/10/09 01:17:12;;;;;;;17.20;7.50;;;;;;;16.64;61.51;100457.72;31317637;28;20450;-74
2022/10/09 01:32:20;;;;;;;15.33;6.90;;;;;;;16.62;61.30;100449.16;31326196;28;20468;-73
2022/10/09 01:47:22;;;;;;;18.57;7.13;;;;;;;16.43;62.30;100436.59;31339627;28;20058;-75
2022/10/09 02:02:25;;;;;;;19.10;8.10;;;;;;;16.33;62.43;100433.03;31334013;28;20048;-74
2022/10/09 02:17:33;;;;;;;18.13;7.37;;;;;;;16.27;62.62;100431.34;31319297;28;20136;-74
2022/10/09 02:32:35;;;;;;;20.63;7.13;;;;;;;16.24;62.67;100419.31;31330176;28;20063;-74
2022/10/09 02:47:37;;;;;;;14.63;5.73;;;;;;;16.30;62.11;100408.50;31335263;28;20394;-73
2022/10/09 03:02:39;;;;;;;10.83;4.90;;;;;;;16.27;62.21;100410.22;31302520;28;20060;-75
2022/10/09 03:17:41;;;;;;;7.80;5.13;;;;;;;16.19;62.49;100391.75;31332840;28;20053;-73
2022/10/09 03:32:43;;;;;;;16.60;7.97;;;;;;;16.21;63.19;100378.38;31298827;28;20111;-74
2022/10/09 03:47:45;;;;;;;20.87;8.17;;;;;;;16.33;62.80;100369.28;31312523;28;20052;-75
2022/10/09 04:02:47;;;;;;;25.20;10.00;;;;;;;16.36;63.00;100379.31;31328507;28;20057;-75
2022/10/09 04:17:49;;;;;;;17.67;7.53;;;;;;;16.38;62.97;100363.22;31306392;28;20069;-74
2022/10/09 04:32:51;;;;;;;23.03;7.03;;;;;;;16.53;62.59;100345.00;31312691;28;20057;-73
2022/10/09 04:47:53;;;;;;;22.67;8.70;;;;;;;17.04;61.52;100344.47;31317602;28;20079;-75
2022/10/09 05:02:55;;;;;;;20.20;8.40;;;;;;;17.71;59.55;100349.03;31336737;28;20075;-73
2022/10/09 05:17:56;;;;;;;23.23;9.47;;;;;;;18.51;57.33;100351.16;31336598;28;20086;-74
2022/10/09 05:32:58;;;;;;;19.17;9.37;;;;;;;18.44;57.81;100351.50;31338964;28;20053;-74
2022/10/09 05:48:00;;;;;;;16.25;6.32;;;;;;;19.81;54.31;100328.44;31344670;28;20057;-75
2022/10/09 06:03:02;;;;;;;12.55;5.05;;;;;;;20.87;50.64;100323.66;31343741;28;20506;-74
2022/10/09 06:18:04;;;;;;;10.82;5.13;;;;;;;21.73;48.90;100320.06;31341630;28;20057;-75
2022/10/09 06:33:06;;;;;;;10.45;5.40;;;;;;;22.21;47.61;100325.69;31363914;28;20049;-76
2022/10/09 06:48:08;;;;;;;9.40;5.03;;;;;;;21.54;49.46;100330.69;31338261;28;20087;-75
2022/10/09 07:03:10;;;;;;;9.18;3.58;;;;;;;23.21;46.96;100325.41;31344010;28;20491;-78
2022/10/09 07:18:12;;;;;;;11.90;4.88;;;;;;;25.08;42.76;100320.63;31343236;28;20509;-78
2022/10/09 07:33:13;;;;;;;9.35;4.68;;;;;;;25.70;41.72;100318.25;31325439;28;20052;-78
2022/10/09 07:48:15;;;;;;;12.18;4.57;;;;;;;25.83;41.65;100321.16;31373302;28;20126;-79
2022/10/09 08:03:17;;;;;;;8.77;4.28;;;;;;;27.02;39.47;100313.78;31388226;28;20049;-78
2022/10/09 08:18:19;;;;;;;23.67;7.63;;;;;;;27.58;38.46;100307.44;31341426;28;20053;-79
2022/10/09 08:33:23;;;;;;;7.72;3.45;;;;;;;28.00;37.89;100288.94;31356436;28;20056;-78
2022/10/09 08:48:28;;;;;;;34.38;18.88;;;;;;;28.40;36.58;100272.97;31310717;28;20057;-78
2022/10/09 09:03:58;;;;;;;5.22;3.40;;;;;;;28.51;36.23;100261.59;31356134;28;20052;-77
2022/10/09 09:19:05;;;;;;;10.07;4.25;;;;;;;27.78;37.86;100253.84;31365320;28;20087;-77
2022/10/09 09:34:26;;;;;;;10.43;3.13;;;;;;;26.62;40.65;100248.75;31338763;28;20080;-78
2022/10/09 09:49:28;;;;;;;7.55;3.38;;;;;;;25.95;42.01;100228.00;31339112;28;20049;-79
2022/10/09 10:04:31;;;;;;;8.07;3.67;;;;;;;25.06;44.67;100206.53;31358797;28;20071;-79
2022/10/09 10:19:34;;;;;;;7.67;3.93;;;;;;;24.71;45.45;100199.69;31350026;28;20052;-79
2022/10/09 10:34:44;;;;;;;5.67;3.17;;;;;;;23.84;48.26;100185.66;31350709;28;20392;-77
2022/10/09 10:49:46;;;;;;;6.07;2.97;;;;;;;23.52;49.38;100199.03;31340155;28;20053;-84
2022/10/09 11:05:28;;;;;;;8.48;3.30;;;;;;;24.23;48.29;100182.75;31349102;28;20084;-82
2022/10/09 11:21:03;;;;;;;8.57;3.38;;;;;;;24.39;47.88;100190.25;31355984;28;20395;-82
2022/10/09 11:36:20;;;;;;;5.35;3.58;;;;;;;24.28;48.14;100168.13;31339893;28;20049;-83
2022/10/09 11:51:46;;;;;;;6.13;3.08;;;;;;;24.25;48.64;100169.16;31336450;28;20119;-81
2022/10/09 12:06:56;;;;;;;7.80;3.90;;;;;;;23.96;49.18;100160.16;31340496;28;20046;-81
2022/10/09 12:22:16;;;;;;;8.23;4.13;;;;;;;23.39;52.17;100174.59;31355513;28;20060;-80
2022/10/09 12:37:29;;;;;;;75.40;36.42;;;;;;;23.31;51.43;100182.69;31335082;28;20049;-78
2022/10/09 12:52:31;;;;;;;14.48;5.32;;;;;;;23.31;52.08;100174.38;31327658;28;20083;-80
2022/10/09 13:07:34;;;;;;;13.20;5.53;;;;;;;23.25;53.01;100159.75;31343704;28;20099;-83
2022/10/09 13:22:36;;;;;;;15.93;7.03;;;;;;;22.94;54.43;100151.69;31351543;28;20045;-83
2022/10/09 13:37:39;;;;;;;10.77;4.95;;;;;;;22.74;54.75;100150.66;31363497;28;20045;-77
2022/10/09 13:52:41;;;;;;;;;;;;;;;22.27;58.46;100152.28;31365277;28;20140;-75
2022/10/09 14:07:43;;;;;;;9.50;6.25;;;;;;;22.03;57.92;100143.66;31352716;28;20401;-77
2022/10/09 14:22:45;;;;;;;11.68;6.13;;;;;;;21.91;58.50;100142.84;31368049;28;20067;-76
2022/10/09 14:37:47;;;;;;;13.60;7.28;;;;;;;21.80;58.72;100159.34;31359538;28;20049;-76
2022/10/09 14:52:50;;;;;;;11.20;6.72;;;;;;;21.78;58.97;100172.91;31354079;28;20064;-77
2022/10/09 15:07:52;;;;;;;15.88;7.07;;;;;;;21.79;58.92;100177.94;31344345;28;20131;-76
2022/10/09 15:22:54;;;;;;;16.48;7.32;;;;;;;21.63;59.98;100192.41;31306490;28;20407;-77
2022/10/09 15:37:56;;;;;;;9.52;5.72;;;;;;;21.57;60.55;100191.59;31347054;28;20049;-77
2022/10/09 15:52:58;;;;;;;8.98;5.57;;;;;;;21.55;59.49;100193.34;31349348;28;20061;-77
2022/10/09 16:08:00;;;;;;;12.25;6.18;;;;;;;21.53;58.96;100204.88;31323990;28;20167;-77
2022/10/09 16:23:03;;;;;;;14.45;6.13;;;;;;;21.26;60.72;100217.22;31324453;28;20053;-77
2022/10/09 16:38:05;;;;;;;13.57;5.93;;;;;;;21.22;61.57;100224.97;31319700;28;20410;-78
2022/10/09 16:53:07;;;;;;;13.43;7.05;;;;;;;21.15;62.04;100232.91;31360871;28;20053;-77
2022/10/09 17:08:09;;;;;;;34.58;13.32;;;;;;;20.89;63.74;100230.91;31351732;28;20045;-77
2022/10/09 17:23:11;;;;;;;30.15;12.93;;;;;;;20.80;65.25;100235.81;31354011;28;20095;-76
2022/10/09 17:38:13;;;;;;;55.45;23.13;;;;;;;20.64;66.64;100240.66;31347033;28;20478;-79
2022/10/09 17:53:15;;;;;;;17.15;9.20;;;;;;;20.52;67.29;100236.28;31331585;28;20049;-76
2022/10/09 18:08:18;;;;;;;16.38;8.77;;;;;;;20.46;67.37;100240.94;31336900;28;20053;-82
2022/10/09 18:23:20;;;;;;;21.08;7.95;;;;;;;20.32;68.08;100242.47;31367806;28;20055;-83
2022/10/09 18:38:23;;;;;;;13.40;6.72;;;;;;;20.18;69.06;100245.31;31325758;28;20059;-84
2022/10/09 18:53:25;;;;;;;15.05;7.22;;;;;;;20.07;68.82;100238.44;31344146;28;20052;-83
2022/10/09 19:08:27;;;;;;;15.18;8.30;;;;;;;19.87;69.53;100243.88;31354228;28;20049;-83
2022/10/09 19:23:29;;;;;;;17.08;10.00;;;;;;;19.68;70.78;100242.59;31327834;28;20495;-82
2022/10/09 19:38:31;;;;;;;22.85;10.52;;;;;;;19.52;71.62;100238.34;31338578;28;20516;-84
2022/10/09 19:53:34;;;;;;;26.52;10.73;;;;;;;19.52;71.51;100237.59;31336505;28;20057;-82
2022/10/09 20:08:38;;;;;;;20.08;8.02;;;;;;;19.47;71.54;100213.44;31299901;28;20045;-82
2022/10/09 20:23:41;;;;;;;14.60;6.93;;;;;;;19.20;72.23;100196.00;31306669;28;20140;-83
2022/10/09 20:38:43;;;;;;;9.57;6.77;;;;;;;18.99;73.14;100186.13;31381923;28;20518;-82
2022/10/09 20:53:49;;;;;;;14.37;7.27;;;;;;;18.74;73.38;100179.94;31349596;28;20057;-83
2022/10/09 21:08:51;;;;;;;17.20;7.80;;;;;;;18.59;74.07;100181.91;31347758;28;20044;-83
2022/10/09 21:23:55;;;;;;;20.97;10.93;;;;;;;18.41;74.14;100190.28;31330898;28;20048;-82
2022/10/09 21:38:57;;;;;;;26.73;13.17;;;;;;;18.15;75.10;100203.00;31344386;28;20049;-82
2022/10/09 21:53:59;;;;;;;27.70;12.47;;;;;;;18.12;74.99;100209.41;31353193;28;20061;-83
2022/10/09 22:09:01;;;;;;;30.13;12.60;;;;;;;18.01;74.95;100205.19;31332725;28;20049;-82
2022/10/09 22:24:03;;;;;;;26.57;13.00;;;;;;;17.97;74.25;100212.84;31333032;28;20049;-82
2022/10/09 22:39:05;;;;;;;26.27;13.30;;;;;;;17.79;73.07;100218.44;31329014;28;20046;-83
2022/10/09 22:54:09;;;;;;;23.97;12.40;;;;;;;17.49;72.71;100224.91;31322160;28;20068;-83
2022/10/09 23:09:13;;;;;;;25.47;13.40;;;;;;;17.39;71.87;100211.25;31335018;28;20045;-82
2022/10/09 23:24:16;;;;;;;22.57;12.70;;;;;;;17.14;71.91;100225.31;31295877;28;20050;-82
2022/10/09 23:39:18;;;;;;;20.30;12.20;;;;;;;16.94;71.90;100219.56;31339520;28;20052;-82
2022/10/09 23:54:20;;;;;;;21.10;11.57;;;;;;;16.82;71.72;100212.25;31333766;28;20057;-83
